createdAt,value
2018-09-17T00:00:58.424Z,61.28
2018-09-17T00:01:58.601Z,46.39
2018-09-17T00:02:58.781Z,61.28
2018-09-17T00:03:58.968Z,45.90
2018-09-17T00:04:59.143Z,44.92
2018-09-17T00:07:59.662Z,45.17
2018-09-17T00:08:59.849Z,44.92
2018-09-17T00:10:00.031Z,46.88
2018-09-17T00:11:00.205Z,44.68
2018-09-17T00:12:00.385Z,49.56
2018-09-17T00:13:00.565Z,43.70
2018-09-17T00:14:00.746Z,46.88
2018-09-17T00:15:00.923Z,43.70
2018-09-17T00:16:01.095Z,44.92
2018-09-17T00:17:01.271Z,49.32
2018-09-17T00:18:01.444Z,44.43
2018-09-17T00:19:01.668Z,44.92
2018-09-17T00:20:01.800Z,58.35
2018-09-17T00:21:01.985Z,43.46
2018-09-17T00:22:02.159Z,54.20
2018-09-17T00:23:02.337Z,59.33
2018-09-17T00:24:02.514Z,46.88
2018-09-17T00:25:02.691Z,45.17
2018-09-17T00:26:02.870Z,47.36
2018-09-17T00:27:03.036Z,47.61
2018-09-17T00:28:03.219Z,47.61
2018-09-17T00:29:03.398Z,55.66
2018-09-17T00:30:03.585Z,54.93
2018-09-17T00:31:03.748Z,54.69
2018-09-17T00:32:03.927Z,44.43
2018-09-17T00:33:04.105Z,44.68
2018-09-17T00:34:04.282Z,52.73
2018-09-17T00:35:04.459Z,46.39
2018-09-17T00:36:04.643Z,44.19
2018-09-17T00:37:05.398Z,48.34
2018-09-17T00:39:05.130Z,58.11
2018-09-17T00:40:05.313Z,45.90
2018-09-17T00:41:05.491Z,58.35
2018-09-17T00:42:05.669Z,44.43
2018-09-17T00:43:05.859Z,48.83
2018-09-17T00:44:06.020Z,56.88
2018-09-17T00:45:06.196Z,52.49
2018-09-17T00:46:06.375Z,48.10
2018-09-17T00:47:06.559Z,53.71
2018-09-17T00:48:06.737Z,46.39
2018-09-17T00:49:06.911Z,48.10
2018-09-17T00:50:07.083Z,48.58
2018-09-17T00:51:07.262Z,45.41
2018-09-17T00:52:07.440Z,56.88
2018-09-17T00:53:07.619Z,46.39
2018-09-17T00:54:07.796Z,48.10
2018-09-17T00:55:07.974Z,56.88
2018-09-17T00:56:08.150Z,46.14
2018-09-17T00:57:08.330Z,44.68
2018-09-17T00:58:08.507Z,61.28
2018-09-17T00:59:08.687Z,48.83
2018-09-17T01:00:08.866Z,49.32
2018-09-17T01:01:09.038Z,57.13
2018-09-17T01:02:09.218Z,49.56
2018-09-17T01:03:09.397Z,47.61
2018-09-17T01:04:09.582Z,52.73
2018-09-17T01:05:09.763Z,59.08
2018-09-17T01:06:09.943Z,48.10
2018-09-17T01:07:10.117Z,52.98
2018-09-17T01:08:10.288Z,47.12
2018-09-17T01:09:10.471Z,48.58
2018-09-17T01:10:10.665Z,49.07
2018-09-17T01:11:10.836Z,46.39
2018-09-17T01:12:11.010Z,49.07
2018-09-17T01:13:11.188Z,66.41
2018-09-17T01:14:11.372Z,46.39
2018-09-17T01:15:11.541Z,47.36
2018-09-17T01:16:11.718Z,49.56
2018-09-17T01:17:11.897Z,67.63
2018-09-17T01:18:12.077Z,58.11
2018-09-17T01:19:12.254Z,46.63
2018-09-17T01:20:12.432Z,47.85
2018-09-17T01:21:12.609Z,55.66
2018-09-17T01:22:12.786Z,53.22
2018-09-17T01:23:12.971Z,50.05
2018-09-17T01:24:13.146Z,47.36
2018-09-17T01:25:13.313Z,56.15
2018-09-17T01:26:13.495Z,49.80
2018-09-17T01:27:13.670Z,58.11
2018-09-17T01:28:13.851Z,50.78
2018-09-17T01:29:14.032Z,50.05
2018-09-17T01:30:14.201Z,65.67
2018-09-17T01:31:14.379Z,55.91
2018-09-17T01:32:14.566Z,55.18
2018-09-17T01:33:14.737Z,59.81
2018-09-17T01:34:14.907Z,55.66
2018-09-17T01:35:15.082Z,55.91
2018-09-17T01:36:15.257Z,48.58
2018-09-17T01:37:15.436Z,55.91
2018-09-17T01:38:15.614Z,50.29
2018-09-17T01:39:15.798Z,46.39
2018-09-17T01:40:15.977Z,50.54
2018-09-17T01:41:16.153Z,46.63
2018-09-17T01:42:16.335Z,47.36
2018-09-17T01:43:16.518Z,48.58
2018-09-17T01:44:16.699Z,49.07
2018-09-17T01:45:16.871Z,67.63
2018-09-17T01:46:17.102Z,56.15
2018-09-17T01:47:17.224Z,63.96
2018-09-17T01:48:17.405Z,49.80
2018-09-17T01:49:17.572Z,48.34
2018-09-17T01:50:17.754Z,51.76
2018-09-17T01:51:17.935Z,50.78
2018-09-17T01:52:18.106Z,57.13
2018-09-17T01:53:18.285Z,50.54
2018-09-17T01:54:18.464Z,66.16
2018-09-17T01:55:18.641Z,46.88
2018-09-17T01:56:18.818Z,56.40
2018-09-17T01:57:19.000Z,62.26
2018-09-17T01:58:19.173Z,50.29
2018-09-17T01:59:19.351Z,58.11
2018-09-17T02:00:19.534Z,47.36
2018-09-17T02:01:19.707Z,50.78
2018-09-17T02:02:19.884Z,56.15
2018-09-17T02:03:20.065Z,74.46
2018-09-17T02:04:20.244Z,50.78
2018-09-17T02:05:20.425Z,52.73
2018-09-17T02:06:20.615Z,52.25
2018-09-17T02:07:20.790Z,55.66
2018-09-17T02:08:20.966Z,61.77
2018-09-17T02:09:21.143Z,52.49
2018-09-17T02:10:21.332Z,52.98
2018-09-17T02:11:21.502Z,48.83
2018-09-17T02:12:21.681Z,48.58
2018-09-17T02:13:21.860Z,53.22
2018-09-17T02:14:22.036Z,56.64
2018-09-17T02:15:22.211Z,49.56
2018-09-17T02:16:22.381Z,47.61
2018-09-17T02:17:22.567Z,49.56
2018-09-17T02:18:22.749Z,56.15
2018-09-17T02:19:22.922Z,59.33
2018-09-17T02:20:23.102Z,55.91
2018-09-17T02:21:23.286Z,49.56
2018-09-17T02:22:23.459Z,48.83
2018-09-17T02:23:23.631Z,51.51
2018-09-17T02:24:23.810Z,51.27
2018-09-17T02:25:23.989Z,61.28
2018-09-17T02:26:24.172Z,59.33
2018-09-17T02:27:24.354Z,67.38
2018-09-17T02:28:24.522Z,51.27
2018-09-17T02:29:24.699Z,53.22
2018-09-17T02:30:24.879Z,52.00
2018-09-17T02:31:25.064Z,55.66
2018-09-17T02:32:25.226Z,53.47
2018-09-17T02:33:25.403Z,49.07
2018-09-17T02:34:25.581Z,52.25
2018-09-17T02:35:25.760Z,48.58
2018-09-17T02:36:25.942Z,54.20
2018-09-17T02:37:26.108Z,56.88
2018-09-17T02:38:26.292Z,49.56
2018-09-17T02:39:26.462Z,60.30
2018-09-17T02:40:26.644Z,50.05
2018-09-17T02:41:26.826Z,65.19
2018-09-17T02:42:27.008Z,52.98
2018-09-17T02:43:27.186Z,64.94
2018-09-17T02:44:27.363Z,54.44
2018-09-17T02:45:27.541Z,51.76
2018-09-17T02:46:27.709Z,52.49
2018-09-17T02:47:27.887Z,56.64
2018-09-17T02:48:28.065Z,50.54
2018-09-17T02:49:28.252Z,51.76
2018-09-17T02:50:28.417Z,51.51
2018-09-17T02:51:28.605Z,58.11
2018-09-17T02:52:28.786Z,51.27
2018-09-17T02:53:29.005Z,51.03
2018-09-17T02:54:29.139Z,53.96
2018-09-17T02:55:29.308Z,57.62
2018-09-17T02:56:29.495Z,49.80
2018-09-17T02:57:29.672Z,60.30
2018-09-17T02:58:29.852Z,53.47
2018-09-17T02:59:30.042Z,60.06
2018-09-17T03:00:30.206Z,64.94
2018-09-17T03:01:30.381Z,48.58
2018-09-17T03:02:30.562Z,56.15
2018-09-17T03:03:30.728Z,50.05
2018-09-17T03:04:30.907Z,49.07
2018-09-17T03:05:31.090Z,49.07
2018-09-17T03:06:31.280Z,50.29
2018-09-17T03:07:32.364Z,53.71
2018-09-17T03:08:31.624Z,54.69
2018-09-17T03:09:31.798Z,49.56
2018-09-17T03:10:31.967Z,51.27
2018-09-17T03:11:32.151Z,59.08
2018-09-17T03:12:32.320Z,49.32
2018-09-17T03:13:32.500Z,47.85
2018-09-17T03:14:32.669Z,48.83
2018-09-17T03:15:32.847Z,50.54
2018-09-17T03:16:33.022Z,57.86
2018-09-17T03:17:33.205Z,56.64
2018-09-17T03:18:33.390Z,49.07
2018-09-17T03:19:33.552Z,49.32
2018-09-17T03:20:33.727Z,49.56
2018-09-17T03:21:33.907Z,50.54
2018-09-17T03:22:34.084Z,51.76
2018-09-17T03:23:34.279Z,52.49
2018-09-17T03:24:34.462Z,50.05
2018-09-17T03:25:34.634Z,57.13
2018-09-17T03:26:34.812Z,51.51
2018-09-17T03:27:34.993Z,51.27
2018-09-17T03:28:35.178Z,49.56
2018-09-17T03:29:35.344Z,51.03
2018-09-17T03:30:35.521Z,51.27
2018-09-17T03:31:35.698Z,55.66
2018-09-17T03:32:35.880Z,54.69
2018-09-17T03:33:36.046Z,53.96
2018-09-17T03:34:36.232Z,53.22
2018-09-17T03:35:36.399Z,51.27
2018-09-17T03:36:36.589Z,53.71
2018-09-17T03:37:36.762Z,54.93
2018-09-17T03:38:36.943Z,51.76
2018-09-17T03:39:37.117Z,51.03
2018-09-17T03:40:37.291Z,51.76
2018-09-17T03:41:37.464Z,52.98
2018-09-17T03:42:37.638Z,56.64
2018-09-17T03:43:37.829Z,52.25
2018-09-17T03:44:37.982Z,52.73
2018-09-17T03:45:38.162Z,50.29
2018-09-17T03:46:38.425Z,51.76
2018-09-17T03:47:38.520Z,70.07
2018-09-17T03:48:38.683Z,75.44
2018-09-17T03:49:38.863Z,49.07
2018-09-17T03:50:39.045Z,56.88
2018-09-17T03:51:39.225Z,50.78
2018-09-17T03:52:39.400Z,51.03
2018-09-17T03:53:39.576Z,51.76
2018-09-17T03:54:39.754Z,54.20
2018-09-17T03:55:39.930Z,60.06
2018-09-17T03:56:40.113Z,50.54
2018-09-17T03:57:40.288Z,50.54
2018-09-17T03:58:40.472Z,54.69
2018-09-17T03:59:40.649Z,58.35
2018-09-17T04:00:40.827Z,66.41
2018-09-17T04:01:40.997Z,55.18
2018-09-17T04:02:41.176Z,52.73
2018-09-17T04:03:41.354Z,58.35
2018-09-17T04:04:41.529Z,57.37
2018-09-17T04:05:41.708Z,60.30
2018-09-17T04:06:41.884Z,56.88
2018-09-17T04:07:42.075Z,51.03
2018-09-17T04:08:42.238Z,52.49
2018-09-17T04:09:42.417Z,53.47
2018-09-17T04:10:42.607Z,56.15
2018-09-17T04:11:42.780Z,64.45
2018-09-17T04:12:42.957Z,52.25
2018-09-17T04:13:43.140Z,60.06
2018-09-17T04:14:43.315Z,54.93
2018-09-17T04:15:43.487Z,53.47
2018-09-17T04:16:43.674Z,71.53
2018-09-17T04:17:43.845Z,59.33
2018-09-17T04:18:44.023Z,50.05
2018-09-17T04:19:44.361Z,54.69
2018-09-17T04:20:44.403Z,53.22
2018-09-17T04:21:44.591Z,58.35
2018-09-17T04:22:44.779Z,59.33
2018-09-17T04:23:44.945Z,53.96
2018-09-17T04:24:45.122Z,55.42
2018-09-17T04:25:45.298Z,51.03
2018-09-17T04:26:45.479Z,63.48
2018-09-17T04:27:45.654Z,61.28
2018-09-17T04:28:45.830Z,56.64
2018-09-17T04:29:46.011Z,55.66
2018-09-17T04:30:46.184Z,59.33
2018-09-17T04:31:46.365Z,63.96
2018-09-17T04:32:46.541Z,55.18
2018-09-17T04:33:46.716Z,60.30
2018-09-17T04:34:46.904Z,59.57
2018-09-17T04:35:47.071Z,74.46
2018-09-17T04:36:47.255Z,59.57
2018-09-17T04:37:47.438Z,60.79
2018-09-17T04:38:47.601Z,61.52
2018-09-17T04:39:47.785Z,66.16
2018-09-17T04:40:47.945Z,64.70
2018-09-17T04:41:48.127Z,64.45
2018-09-17T04:42:48.317Z,60.79
2018-09-17T04:43:48.492Z,63.96
2018-09-17T04:44:48.673Z,62.74
2018-09-17T04:45:48.893Z,63.48
2018-09-17T04:46:49.028Z,67.14
2018-09-17T04:47:49.199Z,65.67
2018-09-17T04:48:49.379Z,63.23
2018-09-17T04:49:49.555Z,68.12
2018-09-17T04:50:49.735Z,61.52
2018-09-17T04:51:49.933Z,69.82
2018-09-17T04:52:50.107Z,64.21
2018-09-17T04:53:50.281Z,66.16
2018-09-17T04:54:50.442Z,64.94
2018-09-17T04:55:50.622Z,60.06
2018-09-17T04:56:50.796Z,62.74
2018-09-17T04:57:50.972Z,66.65
2018-09-17T04:58:51.149Z,63.23
2018-09-17T04:59:51.328Z,66.41
2018-09-17T05:00:51.505Z,77.39
2018-09-17T05:01:51.689Z,78.86
2018-09-17T05:02:51.871Z,79.59
2018-09-17T05:03:52.037Z,79.35
2018-09-17T05:04:52.219Z,78.86
2018-09-17T05:05:52.392Z,78.13
2018-09-17T05:06:52.569Z,60.30
2018-09-17T05:07:52.765Z,62.50
2018-09-17T05:08:52.927Z,59.81
2018-09-17T05:09:53.108Z,68.12
2018-09-17T05:10:53.285Z,68.85
2018-09-17T05:11:53.448Z,75.44
2018-09-17T05:12:53.648Z,64.70
2018-09-17T05:13:53.801Z,66.65
2018-09-17T05:14:54.008Z,67.63
2018-09-17T05:15:54.155Z,57.86
2018-09-17T05:16:54.323Z,66.41
2018-09-17T05:17:54.499Z,66.65
2018-09-17T05:19:54.867Z,70.56
2018-09-17T05:20:55.031Z,71.53
2018-09-17T05:21:55.212Z,62.01
2018-09-17T05:22:55.373Z,59.08
2018-09-17T05:23:55.557Z,59.33
2018-09-17T05:24:55.748Z,56.88
2018-09-17T05:25:55.895Z,61.28
2018-09-17T05:26:56.101Z,62.74
2018-09-17T05:27:56.235Z,63.96
2018-09-17T05:28:56.417Z,57.37
2018-09-17T05:29:56.592Z,56.64
2018-09-17T05:30:56.760Z,57.37
2018-09-17T05:31:56.942Z,62.99
2018-09-17T05:32:57.117Z,59.57
2018-09-17T05:33:57.292Z,66.41
2018-09-17T05:34:57.545Z,66.16
2018-09-17T05:35:57.638Z,67.63
2018-09-17T05:36:57.862Z,61.52
2018-09-17T05:37:58.042Z,58.35
2018-09-17T05:38:58.209Z,66.89
2018-09-17T05:39:58.385Z,59.57
2018-09-17T05:40:58.580Z,60.55
2018-09-17T05:41:58.747Z,68.85
2018-09-17T05:42:58.911Z,67.87
2018-09-17T05:43:59.085Z,66.16
2018-09-17T05:44:59.265Z,83.74
2018-09-17T05:45:59.447Z,65.19
2018-09-17T05:46:59.630Z,64.94
2018-09-17T05:47:59.811Z,58.35
2018-09-17T05:48:59.981Z,74.71
2018-09-17T05:50:00.177Z,67.63
2018-09-17T05:51:00.343Z,61.77
2018-09-17T05:55:32.986Z,60.79
2018-09-17T05:56:33.185Z,64.21
2018-09-17T05:57:34.272Z,67.87
2018-09-17T05:58:33.525Z,78.37
2018-09-17T05:59:33.740Z,71.78
2018-09-17T06:00:33.891Z,66.16
2018-09-17T06:01:34.069Z,65.67
2018-09-17T06:02:34.247Z,59.81
2018-09-17T06:03:34.413Z,67.63
2018-09-17T06:04:34.592Z,67.87
2018-09-17T06:05:34.839Z,73.49
2018-09-17T06:06:34.951Z,73.49
2018-09-17T06:07:35.151Z,70.07
2018-09-17T06:08:35.313Z,70.07
2018-09-17T06:09:35.519Z,72.02
2018-09-17T06:10:35.679Z,75.93
2018-09-17T06:11:35.862Z,71.78
2018-09-17T06:12:36.041Z,70.31
2018-09-17T06:13:36.221Z,61.77
2018-09-17T06:14:36.481Z,78.13
2018-09-17T06:15:36.588Z,76.90
2018-09-17T06:16:36.770Z,62.01
2018-09-17T06:17:36.952Z,71.04
2018-09-17T06:18:37.133Z,76.17
2018-09-17T06:19:37.344Z,73.49
2018-09-17T06:20:37.503Z,73.49
2018-09-17T06:21:37.704Z,75.68
2018-09-17T06:22:37.889Z,77.15
2018-09-17T06:23:38.075Z,71.04
2018-09-17T06:24:38.252Z,70.07
2018-09-17T06:25:38.447Z,64.94
2018-09-17T06:26:38.792Z,73.00
2018-09-17T06:27:38.802Z,71.53
2018-09-17T06:28:39.023Z,63.48
2018-09-17T06:29:39.190Z,62.01
2018-09-17T06:30:39.379Z,62.99
2018-09-17T06:31:39.559Z,60.30
2018-09-17T06:32:39.746Z,61.04
2018-09-17T06:33:39.929Z,61.28
2018-09-17T06:34:40.105Z,62.26
2018-09-17T06:35:40.287Z,64.45
2018-09-17T06:36:40.479Z,71.78
2018-09-17T06:37:40.788Z,57.86
2018-09-17T06:38:40.864Z,62.50
2018-09-17T06:39:41.049Z,65.67
2018-09-17T06:40:41.226Z,63.96
2018-09-17T06:41:41.481Z,75.44
2018-09-17T06:42:41.592Z,67.63
2018-09-17T06:43:41.781Z,67.87
2018-09-17T06:44:41.971Z,65.19
2018-09-17T06:45:42.157Z,68.12
2018-09-17T06:46:42.355Z,60.06
2018-09-17T06:47:42.638Z,62.99
2018-09-17T06:48:42.712Z,76.42
2018-09-17T06:49:42.976Z,63.48
2018-09-17T06:50:43.094Z,59.33
2018-09-17T06:51:43.272Z,62.26
2018-09-17T06:52:43.454Z,60.30
2018-09-17T06:53:43.658Z,56.40
2018-09-17T06:54:43.840Z,63.96
2018-09-17T06:55:44.031Z,54.93
2018-09-17T06:56:44.207Z,62.50
2018-09-17T06:57:44.415Z,73.73
2018-09-17T06:58:44.595Z,63.23
2018-09-17T06:59:44.795Z,70.07
2018-09-17T07:02:45.375Z,63.48
2018-09-17T07:03:45.492Z,58.35
2018-09-17T07:04:45.676Z,62.26
2018-09-17T07:05:45.884Z,71.04
2018-09-17T07:06:46.039Z,82.28
2018-09-17T07:07:46.221Z,78.37
2018-09-17T07:08:46.415Z,88.62
2018-09-17T07:09:46.586Z,93.26
2018-09-17T07:10:46.772Z,73.97
2018-09-17T07:11:46.956Z,72.02
2018-09-17T07:12:47.133Z,61.04
2018-09-17T07:13:47.334Z,60.79
2018-09-17T07:14:47.517Z,64.94
2018-09-17T07:15:47.696Z,59.57
2018-09-17T07:16:47.903Z,64.70
2018-09-17T07:17:48.084Z,62.74
2018-09-17T07:18:48.276Z,60.79
2018-09-17T07:19:48.475Z,59.08
2018-09-17T07:20:48.655Z,67.87
2018-09-17T07:21:48.842Z,62.01
2018-09-17T07:22:49.032Z,62.26
2018-09-17T07:23:49.217Z,62.50
2018-09-17T07:24:49.408Z,62.01
2018-09-17T07:25:49.596Z,60.06
2018-09-17T07:26:49.775Z,61.28
2018-09-17T07:27:49.957Z,56.40
2018-09-17T07:28:50.132Z,72.02
2018-09-17T07:29:50.338Z,65.43
2018-09-17T07:30:50.536Z,63.23
2018-09-17T07:31:50.720Z,54.69
2018-09-17T07:32:50.906Z,63.48
2018-09-17T07:33:51.091Z,68.85
2018-09-17T07:34:51.290Z,62.01
2018-09-17T07:35:51.464Z,77.64
2018-09-17T07:36:51.635Z,61.04
2018-09-17T07:37:51.842Z,69.82
2018-09-17T07:38:52.011Z,66.16
2018-09-17T07:39:52.215Z,60.30
2018-09-17T07:40:52.405Z,64.45
2018-09-17T07:41:52.584Z,68.12
2018-09-17T07:42:52.778Z,61.77
2018-09-17T07:43:52.950Z,58.59
2018-09-17T07:44:53.121Z,66.16
2018-09-17T07:45:53.327Z,61.04
2018-09-17T07:46:53.502Z,67.14
2018-09-17T07:47:53.736Z,68.36
2018-09-17T07:48:53.863Z,71.29
2018-09-17T07:49:54.045Z,57.86
2018-09-17T07:50:54.231Z,71.78
2018-09-17T07:51:54.409Z,79.35
2018-09-17T07:52:54.658Z,78.13
2018-09-17T07:53:54.801Z,68.85
2018-09-17T07:54:54.984Z,61.52
2018-09-17T07:55:55.163Z,62.50
2018-09-17T07:56:55.348Z,60.06
2018-09-17T07:57:55.525Z,63.23
2018-09-17T07:58:55.743Z,74.22
2018-09-17T07:59:55.904Z,60.30
2018-09-17T08:00:56.074Z,64.70
2018-09-17T08:01:56.265Z,71.78
2018-09-17T08:02:56.445Z,75.68
2018-09-17T08:03:56.627Z,65.92
2018-09-17T08:04:56.824Z,60.30
2018-09-17T08:05:57.035Z,69.58
2018-09-17T08:06:57.220Z,62.99
2018-09-17T08:07:57.404Z,63.23
2018-09-17T08:08:57.601Z,63.23
2018-09-17T08:09:57.790Z,63.48
2018-09-17T08:10:57.969Z,60.79
2018-09-17T08:11:58.145Z,62.99
2018-09-17T08:12:58.324Z,66.89
2018-09-17T08:13:58.512Z,74.46
2018-09-17T08:14:58.695Z,66.65
2018-09-17T08:15:58.890Z,72.02
2018-09-17T08:16:59.072Z,69.09
2018-09-17T08:17:59.247Z,73.97
2018-09-17T08:18:59.452Z,60.30
2018-09-17T08:19:59.664Z,60.55
2018-09-17T08:20:59.807Z,59.08
2018-09-17T08:21:59.995Z,59.33
2018-09-17T08:23:00.191Z,67.63
2018-09-17T08:24:00.374Z,57.37
2018-09-17T08:25:00.567Z,66.89
2018-09-17T08:26:00.762Z,61.28
2018-09-17T08:27:00.933Z,59.33
2018-09-17T08:28:01.128Z,61.77
2018-09-17T08:29:01.324Z,65.19
2018-09-17T08:30:01.507Z,57.86
2018-09-17T08:31:01.681Z,57.86
2018-09-17T08:32:01.870Z,86.43
2018-09-17T08:33:02.067Z,60.30
2018-09-17T08:34:02.261Z,64.21
2018-09-17T08:35:02.445Z,62.74
2018-09-17T08:36:02.642Z,62.99
2018-09-17T08:37:02.815Z,69.58
2018-09-17T08:38:03.035Z,73.49
2018-09-17T08:39:03.177Z,67.63
2018-09-17T08:40:03.365Z,63.48
2018-09-17T08:41:03.553Z,83.50
2018-09-17T08:42:03.761Z,78.13
2018-09-17T08:43:03.943Z,89.36
2018-09-17T08:44:04.128Z,62.99
2018-09-17T08:45:04.332Z,59.08
2018-09-17T08:46:04.513Z,69.34
2018-09-17T08:47:04.715Z,61.04
2018-09-17T08:48:04.902Z,61.04
2018-09-17T08:49:05.087Z,64.70
2018-09-17T08:50:05.265Z,63.48
2018-09-17T08:51:05.452Z,71.78
2018-09-17T08:52:05.699Z,57.37
2018-09-17T08:53:05.883Z,62.99
2018-09-17T08:54:06.035Z,61.04
2018-09-17T08:55:06.211Z,74.22
2018-09-17T08:56:06.399Z,75.68
2018-09-17T08:57:06.596Z,64.70
2018-09-17T08:58:06.824Z,60.30
2018-09-17T08:59:06.993Z,67.63
2018-09-17T09:00:07.167Z,68.36
2018-09-17T09:01:07.359Z,63.48
2018-09-17T09:02:07.558Z,66.65
2018-09-17T09:03:07.745Z,73.97
2018-09-17T09:04:07.903Z,60.55
2018-09-17T09:05:08.170Z,62.99
2018-09-17T09:06:08.306Z,60.55
2018-09-17T09:07:08.496Z,61.04
2018-09-17T09:08:08.685Z,64.21
2018-09-17T09:09:08.860Z,65.19
2018-09-17T09:10:09.042Z,66.41
2018-09-17T09:11:09.233Z,63.23
2018-09-17T09:12:09.424Z,62.26
2018-09-17T09:13:09.600Z,63.48
2018-09-17T09:14:09.784Z,60.79
2018-09-17T09:15:09.973Z,63.72
2018-09-17T09:16:10.166Z,63.96
2018-09-17T09:17:10.342Z,70.80
2018-09-17T09:18:10.532Z,69.82
2018-09-17T09:19:10.717Z,67.14
2018-09-17T09:20:10.903Z,67.63
2018-09-17T09:21:11.088Z,67.14
2018-09-17T09:22:11.272Z,67.63
2018-09-17T09:23:11.475Z,67.87
2018-09-17T09:24:11.659Z,58.11
2018-09-17T09:25:11.847Z,71.53
2018-09-17T09:26:12.063Z,63.48
2018-09-17T09:30:45.764Z,63.48
2018-09-17T09:31:45.921Z,70.31
2018-09-17T09:32:46.114Z,62.50
2018-09-17T09:33:46.289Z,75.20
2018-09-17T09:34:46.488Z,67.87
2018-09-17T09:35:46.698Z,69.58
2018-09-17T09:36:46.880Z,69.82
2018-09-17T09:37:47.065Z,69.34
2018-09-17T09:38:47.247Z,63.48
2018-09-17T09:39:47.437Z,65.19
2018-09-17T09:40:47.615Z,77.39
2018-09-17T09:41:47.807Z,63.72
2018-09-17T09:42:47.990Z,71.29
2018-09-17T09:43:48.176Z,64.45
2018-09-17T09:44:48.365Z,62.99
2018-09-17T09:45:48.550Z,69.82
2018-09-17T09:46:48.735Z,61.77
2018-09-17T09:47:48.935Z,71.78
2018-09-17T09:48:49.111Z,61.28
2018-09-17T09:49:49.300Z,70.07
2018-09-17T09:50:51.551Z,58.59
2018-09-17T09:51:49.752Z,56.64
2018-09-17T09:52:49.969Z,61.28
2018-09-17T09:53:50.185Z,58.11
2018-09-17T09:54:50.311Z,57.86
2018-09-17T09:55:50.500Z,69.58
2018-09-17T09:56:50.688Z,63.72
2018-09-17T09:57:50.876Z,63.72
2018-09-17T09:58:51.068Z,71.04
2018-09-17T09:59:51.268Z,59.08
2018-09-17T10:00:51.454Z,66.89
2018-09-17T10:01:51.642Z,80.81
2018-09-17T10:02:51.830Z,79.83
2018-09-17T10:03:52.025Z,78.86
2018-09-17T10:04:52.209Z,79.59
2018-09-17T10:05:52.396Z,78.61
2018-09-17T10:06:52.582Z,74.22
2018-09-17T10:07:52.782Z,62.74
2018-09-17T10:08:52.968Z,61.04
2018-09-17T10:10:53.336Z,58.84
2018-09-17T10:11:53.527Z,55.18
2018-09-17T10:12:53.724Z,61.77
2018-09-17T10:13:53.898Z,59.81
2018-09-17T10:14:54.097Z,53.22
2018-09-17T10:15:54.272Z,58.11
2018-09-17T10:16:54.475Z,56.88
2018-09-17T10:17:54.695Z,58.84
2018-09-17T10:18:54.857Z,56.88
2018-09-17T10:19:55.038Z,69.82
2018-09-17T10:20:55.211Z,60.30
2018-09-17T10:21:55.526Z,60.79
2018-09-17T10:22:55.660Z,57.86
2018-09-17T10:23:55.863Z,60.55
2018-09-17T10:24:55.986Z,57.62
2018-09-17T10:25:56.166Z,61.04
2018-09-17T10:26:56.340Z,55.18
2018-09-17T10:27:56.539Z,63.48
2018-09-17T10:28:56.709Z,61.77
2018-09-17T10:29:56.907Z,59.57
2018-09-17T10:30:57.091Z,61.77
2018-09-17T10:31:57.285Z,66.65
2018-09-17T10:32:57.465Z,56.15
2018-09-17T10:33:57.638Z,66.41
2018-09-17T10:34:57.829Z,66.89
2018-09-17T10:35:58.018Z,58.35
2018-09-17T10:36:58.169Z,62.74
2018-09-17T10:37:58.353Z,64.70
2018-09-17T10:38:58.528Z,64.94
2018-09-17T10:39:58.720Z,65.19
2018-09-17T10:40:58.884Z,62.50
2018-09-17T10:41:59.058Z,63.96
2018-09-17T10:42:59.237Z,58.84
2018-09-17T10:43:59.417Z,62.50
2018-09-17T10:44:59.599Z,61.52
2018-09-17T10:45:59.781Z,59.57
2018-09-17T10:47:00.028Z,59.57
2018-09-17T10:48:00.143Z,74.46
2018-09-17T10:49:00.319Z,65.43
2018-09-17T10:50:00.498Z,59.57
2018-09-17T10:51:00.684Z,64.70
2018-09-17T10:52:00.870Z,67.63
2018-09-17T10:53:01.071Z,59.33
2018-09-17T10:54:01.239Z,61.04
2018-09-17T10:55:01.433Z,60.55
2018-09-17T10:56:01.640Z,61.28
2018-09-17T10:57:01.867Z,62.74
2018-09-17T10:58:02.076Z,57.62
2018-09-17T10:59:02.238Z,57.62
2018-09-17T11:00:02.438Z,58.11
2018-09-17T11:01:02.648Z,71.78
2018-09-17T11:02:02.818Z,52.00
2018-09-17T11:03:02.995Z,70.07
2018-09-17T11:04:03.182Z,60.79
2018-09-17T11:05:03.372Z,71.53
2018-09-17T11:06:03.544Z,55.91
2018-09-17T11:07:03.732Z,64.70
2018-09-17T11:08:03.918Z,58.84
2018-09-17T11:09:04.071Z,59.33
2018-09-17T11:10:04.253Z,60.06
2018-09-17T11:11:04.427Z,64.94
2018-09-17T11:12:04.608Z,62.99
2018-09-17T11:13:04.792Z,65.19
2018-09-17T11:14:04.975Z,59.81
2018-09-17T11:15:05.164Z,64.45
2018-09-17T11:16:05.330Z,60.55
2018-09-17T11:17:05.489Z,57.37
2018-09-17T11:18:05.674Z,64.45
2018-09-17T11:19:05.862Z,59.57
2018-09-17T11:20:06.023Z,61.77
2018-09-17T11:21:06.206Z,62.50
2018-09-17T11:22:06.394Z,58.35
2018-09-17T11:23:06.577Z,57.86
2018-09-17T11:24:06.756Z,64.70
2018-09-17T11:25:06.943Z,62.99
2018-09-17T11:26:07.127Z,59.81
2018-09-17T11:27:07.315Z,63.72
2018-09-17T11:28:07.496Z,59.81
2018-09-17T11:29:07.662Z,56.40
2018-09-17T11:30:07.845Z,60.55
2018-09-17T11:31:08.016Z,61.04
2018-09-17T11:32:08.210Z,60.55
2018-09-17T11:33:08.366Z,56.15
2018-09-17T11:34:08.541Z,60.30
2018-09-17T11:35:08.724Z,61.04
2018-09-17T11:36:08.949Z,58.35
2018-09-17T11:37:09.111Z,60.06
2018-09-17T11:38:09.288Z,58.84
2018-09-17T11:39:09.483Z,66.89
2018-09-17T11:40:09.657Z,65.92
2018-09-17T11:41:09.873Z,60.30
2018-09-17T11:42:09.966Z,63.72
2018-09-17T11:43:10.144Z,61.28
2018-09-17T11:44:10.348Z,84.23
2018-09-17T11:45:10.534Z,62.01
2018-09-17T11:46:10.717Z,62.01
2018-09-17T11:47:10.878Z,64.70
2018-09-17T11:48:11.091Z,60.79
2018-09-17T11:49:11.252Z,55.66
2018-09-17T11:50:11.487Z,58.59
2018-09-17T11:51:11.612Z,58.35
2018-09-17T11:52:11.786Z,61.04
2018-09-17T11:53:11.976Z,63.48
2018-09-17T11:54:12.134Z,63.23
2018-09-17T11:55:12.336Z,57.37
2018-09-17T11:56:12.519Z,59.33
2018-09-17T11:57:12.691Z,61.28
2018-09-17T11:58:12.865Z,63.72
2018-09-17T11:59:13.043Z,65.19
2018-09-17T12:00:13.224Z,65.43
2018-09-17T12:01:13.420Z,65.92
2018-09-17T12:02:13.667Z,66.65
2018-09-17T12:03:13.791Z,61.28
2018-09-17T12:04:13.980Z,63.48
2018-09-17T12:05:14.178Z,69.58
2018-09-17T12:06:14.314Z,65.67
2018-09-17T12:07:14.538Z,52.49
2018-09-17T12:08:14.710Z,68.60
2018-09-17T12:09:14.942Z,64.70
2018-09-17T12:10:15.085Z,69.09
2018-09-17T12:11:15.415Z,68.12
2018-09-17T12:12:15.489Z,79.35
2018-09-17T12:13:15.658Z,55.91
2018-09-17T12:15:16.028Z,58.11
2018-09-17T12:16:16.187Z,62.50
2018-09-17T12:17:16.371Z,64.70
2018-09-17T12:18:16.537Z,64.94
2018-09-17T12:19:16.721Z,56.64
2018-09-17T12:20:16.885Z,74.46
2018-09-17T12:21:17.071Z,80.32
2018-09-17T12:22:17.275Z,80.08
2018-09-17T12:23:17.462Z,80.81
2018-09-17T12:24:17.660Z,78.86
2018-09-17T12:25:17.783Z,80.08
2018-09-17T12:26:17.966Z,79.10
2018-09-17T12:27:18.158Z,79.59
2018-09-17T12:28:18.334Z,79.10
2018-09-17T12:29:18.531Z,80.32
2018-09-17T12:30:18.700Z,78.13
2018-09-17T12:31:18.891Z,77.64
2018-09-17T12:32:19.043Z,57.86
2018-09-17T12:33:19.212Z,63.23
2018-09-17T12:34:19.390Z,62.50
2018-09-17T12:35:19.563Z,59.08
2018-09-17T12:36:19.754Z,57.86
2018-09-17T12:37:19.934Z,59.81
2018-09-17T12:38:20.126Z,61.28
2018-09-17T12:39:20.331Z,62.26
2018-09-17T12:40:20.516Z,65.67
2018-09-17T12:41:20.684Z,57.37
2018-09-17T12:42:20.847Z,59.33
2018-09-17T12:43:21.046Z,57.62
2018-09-17T12:44:21.210Z,67.63
2018-09-17T12:45:21.399Z,63.72
2018-09-17T12:46:21.585Z,59.08
2018-09-17T12:47:21.775Z,68.36
2018-09-17T12:48:21.958Z,52.73
2018-09-17T12:49:22.143Z,60.79
2018-09-17T12:50:22.330Z,57.37
2018-09-17T12:51:22.505Z,59.57
2018-09-17T12:52:22.687Z,62.74
2018-09-17T12:53:22.875Z,63.96
2018-09-17T12:54:23.060Z,59.08
2018-09-17T12:55:23.252Z,62.26
2018-09-17T12:56:23.430Z,72.75
2018-09-17T12:57:23.693Z,60.30
2018-09-17T12:58:23.797Z,65.43
2018-09-17T12:59:23.973Z,61.28
2018-09-17T13:00:24.154Z,60.30
2018-09-17T13:01:24.354Z,59.33
2018-09-17T13:02:24.516Z,70.80
2018-09-17T13:03:24.759Z,59.81
2018-09-17T13:04:24.875Z,61.77
2018-09-17T13:05:25.030Z,61.52
2018-09-17T13:06:25.196Z,56.88
2018-09-17T13:07:25.377Z,58.11
2018-09-17T13:08:25.563Z,60.55
2018-09-17T13:09:25.728Z,66.41
2018-09-17T13:10:25.895Z,62.26